Liberta — V2CM3 — position and weather

sailwx.info

Track history (hours):
 
Tides and Currents Weather Stations Pressure Air Temp Water Temp Dewpoint Dewpoint Depression Visibility Wind Speed Wind Dir Waves Ship Positions

Liberta

Last reported at 2015-Jan-27 05:33 UTC. Time now 2015-Jan-27 05:47 UTC.
Position N 51°27' E 003°44'.

Length 138 m; draft 8.7 m.

Type: Cargo ship. MMSI: 305043000.

Date/timePositionNaut miles runAvg speedWind from/ knotsBaromVisibWave heightAir tempDewpointWater temp
2015-Jan-27 05:33N 51°27' E 003°44'2 2.4
2015-Jan-27 04:34N 51°25' E 003°42'7 7.4
2015-Jan-27 03:33N 51°21' E 003°52'7 7.2
2015-Jan-27 02:34N 51°26' E 004°01'6 6.4
2015-Jan-27 01:33N 51°24' E 004°11'5 4.9
2015-Jan-27 00:33N 51°21' E 004°17'1 0.6
2015-Jan-26 23:34N 51°21' E 004°18'4 3.5
2015-Jan-26 22:34N 51°17' E 004°20'3 3.5
2015-Jan-26 21:33N 51°15' E 004°24'0 0.0
2015-Jan-26 20:33N 51°15' E 004°24'0 0.0
2015-Jan-26 19:33N 51°15' E 004°24'0 0.0
2015-Jan-26 18:33N 51°15' E 004°24'0 0.0
2015-Jan-26 17:33N 51°15' E 004°24'0 0.0
2015-Jan-26 16:33N 51°15' E 004°24'0 0.0
2015-Jan-26 15:27N 51°15' E 004°24'0 0.0
2015-Jan-26 14:33N 51°15' E 004°24'0 0.0
2015-Jan-26 13:33N 51°15' E 004°24'0 0.0
2015-Jan-26 12:33N 51°15' E 004°24'0 0.0
2015-Jan-26 11:33N 51°15' E 004°24'0 0.0
2015-Jan-26 10:33N 51°15' E 004°24'0 0.0
2015-Jan-26 09:33N 51°15' E 004°24'0 0.0
2015-Jan-26 08:33N 51°15' E 004°24'0 0.0
2015-Jan-26 07:33N 51°15' E 004°24'0 0.0
2015-Jan-26 06:33N 51°15' E 004°24'0 0.0
2015-Jan-26 05:33N 51°15' E 004°24'0 0.0
2015-Jan-26 04:33N 51°15' E 004°24'0 0.0
2015-Jan-26 03:33N 51°15' E 004°24'0 0.0
2015-Jan-26 02:33N 51°15' E 004°24'0 0.0
2015-Jan-26 01:33N 51°15' E 004°24'0 0.0
2015-Jan-26 00:33N 51°15' E 004°24'0 0.0
2015-Jan-25 23:30N 51°15' E 004°24'0 0.0
2015-Jan-25 22:33N 51°15' E 004°24'0 0.0
2015-Jan-25 21:33N 51°15' E 004°24'0 0.0
2015-Jan-25 20:33N 51°15' E 004°24'0 0.0
2015-Jan-25 19:33N 51°15' E 004°24'0 0.0
2015-Jan-25 18:33N 51°15' E 004°24'0 0.0
2015-Jan-25 17:33N 51°15' E 004°24'0 0.0
2015-Jan-25 16:33N 51°15' E 004°24'0 0.0
2015-Jan-25 15:33N 51°15' E 004°24'0 0.0
2015-Jan-25 14:33N 51°15' E 004°24'0 0.0
2015-Jan-25 13:33N 51°15' E 004°24'0 0.0
2015-Jan-25 12:33N 51°15' E 004°24'0 0.0
2015-Jan-25 11:33N 51°15' E 004°24'0 0.0
2015-Jan-25 10:33N 51°15' E 004°24'0 0.0
2015-Jan-25 09:33N 51°15' E 004°24'0 0.0
2015-Jan-25 08:33N 51°15' E 004°24'0 0.0
2015-Jan-25 07:33N 51°15' E 004°24'0 0.0
2015-Jan-25 06:33N 51°15' E 004°24'0 0.0
2015-Jan-25 05:30N 51°15' E 004°24'0 0.0
2015-Jan-25 04:33N 51°15' E 004°24'0 0.0
2015-Jan-25 03:33N 51°15' E 004°24'0 0.0
2015-Jan-25 02:33N 51°15' E 004°24'0 0.0
2015-Jan-25 01:33N 51°15' E 004°24'0 0.0
2015-Jan-25 00:33N 51°15' E 004°24'0 0.0
2015-Jan-24 23:30N 51°15' E 004°24'0 0.0
2015-Jan-24 22:33N 51°15' E 004°24'0 0.0
2015-Jan-24 21:33N 51°15' E 004°24'0 0.0
2015-Jan-24 20:33N 51°15' E 004°24'0 0.0
2015-Jan-24 19:33N 51°15' E 004°24'0 0.0
2015-Jan-24 18:33N 51°15' E 004°24'0 0.0
2015-Jan-24 17:33N 51°15' E 004°24'0 0.0
2015-Jan-24 16:33N 51°15' E 004°24'0 0.0
2015-Jan-24 15:30N 51°15' E 004°24'0 0.0
2015-Jan-24 14:33N 51°15' E 004°24'0 0.0
2015-Jan-24 13:33N 51°15' E 004°24'0 0.0
2015-Jan-24 12:30N 51°15' E 004°24'0 0.0
2015-Jan-24 11:33N 51°15' E 004°24'0 0.0
2015-Jan-24 10:33N 51°15' E 004°24'0 0.0
2015-Jan-24 09:33N 51°15' E 004°24'0 0.0
2015-Jan-24 08:33N 51°15' E 004°24'0 0.0
2015-Jan-24 07:33N 51°15' E 004°24'0 0.0
2015-Jan-24 06:33N 51°15' E 004°24'0 0.0
2015-Jan-24 05:30N 51°15' E 004°24'0 0.0
2015-Jan-24 04:33N 51°15' E 004°24'0 0.0
2015-Jan-24 03:33N 51°15' E 004°24'0 0.0
2015-Jan-24 02:33N 51°15' E 004°24'0 0.0
2015-Jan-24 01:33N 51°15' E 004°24'0 0.0
2015-Jan-24 00:33N 51°15' E 004°24'0 0.0
2015-Jan-23 23:33N 51°15' E 004°24'0 0.0
2015-Jan-23 22:33N 51°15' E 004°24'0 0.0
2015-Jan-23 21:33N 51°15' E 004°24'0 0.0
2015-Jan-23 20:33N 51°15' E 004°24'0 0.0
2015-Jan-23 19:33N 51°15' E 004°24'0 0.0
2015-Jan-23 18:27N 51°15' E 004°24'0 0.0
2015-Jan-23 17:33N 51°15' E 004°24'0 0.0
2015-Jan-23 16:33N 51°15' E 004°24'0 0.0
2015-Jan-23 15:33N 51°15' E 004°24'0 0.0
2015-Jan-23 14:33N 51°15' E 004°24'0 0.0
2015-Jan-23 13:33N 51°15' E 004°24'0 0.0
2015-Jan-23 12:33N 51°15' E 004°24'3 2.7
2015-Jan-23 11:34N 51°16' E 004°20'1 0.9
2015-Jan-23 10:32N 51°17' E 004°21'0 0.0
2015-Jan-23 09:32N 51°17' E 004°21'0 0.0
2015-Jan-23 08:29N 51°17' E 004°21'0 0.0
2015-Jan-23 07:32N 51°17' E 004°21'0 0.0
2015-Jan-23 06:32N 51°17' E 004°21'0 0.0
2015-Jan-23 05:32N 51°17' E 004°21'0 0.0
2015-Jan-23 04:32N 51°17' E 004°21'0 0.0
2015-Jan-23 03:33N 51°17' E 004°21'0 0.0
2015-Jan-23 02:26N 51°17' E 004°21'0 0.0
2015-Jan-23 01:20N 51°17' E 004°21'0 0.0
2015-Jan-23 00:32N 51°17' E 004°21'0 0.0
2015-Jan-22 23:32N 51°17' E 004°21'0 0.0
2015-Jan-22 22:32N 51°17' E 004°21'0 0.0
2015-Jan-22 21:32N 51°17' E 004°21'0 0.0
2015-Jan-22 20:32N 51°17' E 004°21'0 0.0
2015-Jan-22 19:32N 51°17' E 004°21'0 0.0
2015-Jan-22 18:32N 51°17' E 004°21'0 0.0
2015-Jan-22 17:32N 51°17' E 004°21'0 0.0
2015-Jan-22 16:32N 51°17' E 004°21'0 0.0
2015-Jan-22 15:32N 51°17' E 004°21'0 0.0
2015-Jan-22 14:26N 51°17' E 004°21'1 0.7
2015-Jan-22 13:34N 51°17' E 004°20'0 0.0
2015-Jan-22 12:33N 51°17' E 004°20'5 5.0
2015-Jan-22 11:33N 51°21' E 004°15'9 8.5
2015-Jan-22 10:33N 51°23' E 004°02'7 6.9
2015-Jan-22 09:33N 51°21' E 003°52'9 9.2
2015-Jan-22 08:34N 51°26' E 003°40'9 8.5
2015-Jan-22 07:33N 51°25' E 003°27'8 8.2
2015-Jan-22 06:32N 51°24' E 003°13'1010.0
2015-Jan-22 05:33N 51°23' E 002°58'10 9.8
2015-Jan-22 04:32N 51°22' E 002°42'5 4.5
2015-Jan-22 03:29N 51°22' E 002°34'4 4.5
2015-Jan-22 02:30N 51°21' E 002°27'6 5.2
2015-Jan-22 01:27N 51°19' E 002°20'5 5.6
2015-Jan-22 00:33N 51°16' E 002°13'7 6.9
2015-Jan-21 23:34N 51°12' E 002°04'6 7.7
2015-Jan-21 22:50N 51°10' E 001°56'0 7.0
2015-Jan-21 22:46N 51°09' E 001°55'1 6.8
2015-Jan-21 22:33N 51°09' E 001°53'7 7.3
2015-Jan-21 21:33N 51°04' E 001°44'7 6.7
2015-Jan-21 20:34N 50°59' E 001°37'5 4.7
2015-Jan-21 19:34N 50°56' E 001°32'4 4.2
2015-Jan-21 18:33N 50°52' E 001°28'50 7.9
2015-Jan-21 12:12N 50°23' E 000°24'  
2015-Jan-17 18:32N 39°14' W 009°50'1111.5
2015-Jan-17 17:33N 39°02' W 009°50'1111.3
2015-Jan-17 16:32N 38°51' W 009°50'1111.2
2015-Jan-17 15:33N 38°40' W 009°49'10 9.7
2015-Jan-17 14:34N 38°37' W 009°38'1111.1
2015-Jan-17 13:33N 38°37' W 009°23'9 9.4
2015-Jan-17 12:34N 38°41' W 009°13'2 1.7
2015-Jan-17 11:33N 38°42' W 009°10'0 0.0
2015-Jan-17 10:24N 38°42' W 009°10'0 0.0
2015-Jan-17 09:33N 38°42' W 009°10'0 0.0
2015-Jan-17 08:33N 38°42' W 009°10'0 0.0
2015-Jan-17 07:33N 38°42' W 009°10'0 0.0
2015-Jan-17 06:33N 38°42' W 009°10'  
Track history (hours):
 
Tides and Currents Weather Stations Pressure Air Temp Water Temp Dewpoint Dewpoint Depression Visibility Wind Speed Wind Dir Waves Ship Positions

Liberta

Last reported at 2015-Jan-27 05:33 UTC. Time now 2015-Jan-27 05:47 UTC.
Position N 51°27' E 003°44'.

Length 138 m; draft 8.7 m.

Type: Cargo ship. MMSI: 305043000.

Date/timePositionNaut miles runAvg speedWind from/ knotsBaromVisibWave heightAir tempDewpointWater temp
2015-Jan-27 05:33N 51°27' E 003°44'2 2.4
2015-Jan-27 04:34N 51°25' E 003°42'7 7.4
2015-Jan-27 03:33N 51°21' E 003°52'7 7.2
2015-Jan-27 02:34N 51°26' E 004°01'6 6.4
2015-Jan-27 01:33N 51°24' E 004°11'5 4.9
2015-Jan-27 00:33N 51°21' E 004°17'1 0.6
2015-Jan-26 23:34N 51°21' E 004°18'4 3.5
2015-Jan-26 22:34N 51°17' E 004°20'3 3.5
2015-Jan-26 21:33N 51°15' E 004°24'0 0.0
2015-Jan-26 20:33N 51°15' E 004°24'0 0.0
2015-Jan-26 19:33N 51°15' E 004°24'0 0.0
2015-Jan-26 18:33N 51°15' E 004°24'0 0.0
2015-Jan-26 17:33N 51°15' E 004°24'0 0.0
2015-Jan-26 16:33N 51°15' E 004°24'0 0.0
2015-Jan-26 15:27N 51°15' E 004°24'0 0.0
2015-Jan-26 14:33N 51°15' E 004°24'0 0.0
2015-Jan-26 13:33N 51°15' E 004°24'0 0.0
2015-Jan-26 12:33N 51°15' E 004°24'0 0.0
2015-Jan-26 11:33N 51°15' E 004°24'0 0.0
2015-Jan-26 10:33N 51°15' E 004°24'0 0.0
2015-Jan-26 09:33N 51°15' E 004°24'0 0.0
2015-Jan-26 08:33N 51°15' E 004°24'0 0.0
2015-Jan-26 07:33N 51°15' E 004°24'0 0.0
2015-Jan-26 06:33N 51°15' E 004°24'0 0.0
2015-Jan-26 05:33N 51°15' E 004°24'0 0.0
2015-Jan-26 04:33N 51°15' E 004°24'0 0.0
2015-Jan-26 03:33N 51°15' E 004°24'0 0.0
2015-Jan-26 02:33N 51°15' E 004°24'0 0.0
2015-Jan-26 01:33N 51°15' E 004°24'0 0.0
2015-Jan-26 00:33N 51°15' E 004°24'0 0.0
2015-Jan-25 23:30N 51°15' E 004°24'0 0.0
2015-Jan-25 22:33N 51°15' E 004°24'0 0.0
2015-Jan-25 21:33N 51°15' E 004°24'0 0.0
2015-Jan-25 20:33N 51°15' E 004°24'0 0.0
2015-Jan-25 19:33N 51°15' E 004°24'0 0.0
2015-Jan-25 18:33N 51°15' E 004°24'0 0.0
2015-Jan-25 17:33N 51°15' E 004°24'0 0.0
2015-Jan-25 16:33N 51°15' E 004°24'0 0.0
2015-Jan-25 15:33N 51°15' E 004°24'0 0.0
2015-Jan-25 14:33N 51°15' E 004°24'0 0.0
2015-Jan-25 13:33N 51°15' E 004°24'0 0.0
2015-Jan-25 12:33N 51°15' E 004°24'0 0.0
2015-Jan-25 11:33N 51°15' E 004°24'0 0.0
2015-Jan-25 10:33N 51°15' E 004°24'0 0.0
2015-Jan-25 09:33N 51°15' E 004°24'0 0.0
2015-Jan-25 08:33N 51°15' E 004°24'0 0.0
2015-Jan-25 07:33N 51°15' E 004°24'0 0.0
2015-Jan-25 06:33N 51°15' E 004°24'0 0.0
2015-Jan-25 05:30N 51°15' E 004°24'0 0.0
2015-Jan-25 04:33N 51°15' E 004°24'0 0.0
2015-Jan-25 03:33N 51°15' E 004°24'0 0.0
2015-Jan-25 02:33N 51°15' E 004°24'0 0.0
2015-Jan-25 01:33N 51°15' E 004°24'0 0.0
2015-Jan-25 00:33N 51°15' E 004°24'0 0.0
2015-Jan-24 23:30N 51°15' E 004°24'0 0.0
2015-Jan-24 22:33N 51°15' E 004°24'0 0.0
2015-Jan-24 21:33N 51°15' E 004°24'0 0.0
2015-Jan-24 20:33N 51°15' E 004°24'0 0.0
2015-Jan-24 19:33N 51°15' E 004°24'0 0.0
2015-Jan-24 18:33N 51°15' E 004°24'0 0.0
2015-Jan-24 17:33N 51°15' E 004°24'0 0.0
2015-Jan-24 16:33N 51°15' E 004°24'0 0.0
2015-Jan-24 15:30N 51°15' E 004°24'0 0.0
2015-Jan-24 14:33N 51°15' E 004°24'0 0.0
2015-Jan-24 13:33N 51°15' E 004°24'0 0.0
2015-Jan-24 12:30N 51°15' E 004°24'0 0.0
2015-Jan-24 11:33N 51°15' E 004°24'0 0.0
2015-Jan-24 10:33N 51°15' E 004°24'0 0.0
2015-Jan-24 09:33N 51°15' E 004°24'0 0.0
2015-Jan-24 08:33N 51°15' E 004°24'0 0.0
2015-Jan-24 07:33N 51°15' E 004°24'0 0.0
2015-Jan-24 06:33N 51°15' E 004°24'0 0.0
2015-Jan-24 05:30N 51°15' E 004°24'0 0.0
2015-Jan-24 04:33N 51°15' E 004°24'0 0.0
2015-Jan-24 03:33N 51°15' E 004°24'0 0.0
2015-Jan-24 02:33N 51°15' E 004°24'0 0.0
2015-Jan-24 01:33N 51°15' E 004°24'0 0.0
2015-Jan-24 00:33N 51°15' E 004°24'0 0.0
2015-Jan-23 23:33N 51°15' E 004°24'0 0.0
2015-Jan-23 22:33N 51°15' E 004°24'0 0.0
2015-Jan-23 21:33N 51°15' E 004°24'0 0.0
2015-Jan-23 20:33N 51°15' E 004°24'0 0.0
2015-Jan-23 19:33N 51°15' E 004°24'0 0.0
2015-Jan-23 18:27N 51°15' E 004°24'0 0.0
2015-Jan-23 17:33N 51°15' E 004°24'0 0.0
2015-Jan-23 16:33N 51°15' E 004°24'0 0.0
2015-Jan-23 15:33N 51°15' E 004°24'0 0.0
2015-Jan-23 14:33N 51°15' E 004°24'0 0.0
2015-Jan-23 13:33N 51°15' E 004°24'0 0.0
2015-Jan-23 12:33N 51°15' E 004°24'3 2.7
2015-Jan-23 11:34N 51°16' E 004°20'1 0.9
2015-Jan-23 10:32N 51°17' E 004°21'0 0.0
2015-Jan-23 09:32N 51°17' E 004°21'0 0.0
2015-Jan-23 08:29N 51°17' E 004°21'0 0.0
2015-Jan-23 07:32N 51°17' E 004°21'0 0.0
2015-Jan-23 06:32N 51°17' E 004°21'0 0.0
2015-Jan-23 05:32N 51°17' E 004°21'0 0.0
2015-Jan-23 04:32N 51°17' E 004°21'0 0.0
2015-Jan-23 03:33N 51°17' E 004°21'0 0.0
2015-Jan-23 02:26N 51°17' E 004°21'0 0.0
2015-Jan-23 01:20N 51°17' E 004°21'0 0.0
2015-Jan-23 00:32N 51°17' E 004°21'0 0.0
2015-Jan-22 23:32N 51°17' E 004°21'0 0.0
2015-Jan-22 22:32N 51°17' E 004°21'0 0.0
2015-Jan-22 21:32N 51°17' E 004°21'0 0.0
2015-Jan-22 20:32N 51°17' E 004°21'0 0.0
2015-Jan-22 19:32N 51°17' E 004°21'0 0.0
2015-Jan-22 18:32N 51°17' E 004°21'0 0.0
2015-Jan-22 17:32N 51°17' E 004°21'0 0.0
2015-Jan-22 16:32N 51°17' E 004°21'0 0.0
2015-Jan-22 15:32N 51°17' E 004°21'0 0.0
2015-Jan-22 14:26N 51°17' E 004°21'1 0.7
2015-Jan-22 13:34N 51°17' E 004°20'0 0.0
2015-Jan-22 12:33N 51°17' E 004°20'5 5.0
2015-Jan-22 11:33N 51°21' E 004°15'9 8.5
2015-Jan-22 10:33N 51°23' E 004°02'7 6.9
2015-Jan-22 09:33N 51°21' E 003°52'9 9.2
2015-Jan-22 08:34N 51°26' E 003°40'9 8.5
2015-Jan-22 07:33N 51°25' E 003°27'8 8.2
2015-Jan-22 06:32N 51°24' E 003°13'1010.0
2015-Jan-22 05:33N 51°23' E 002°58'10 9.8
2015-Jan-22 04:32N 51°22' E 002°42'5 4.5
2015-Jan-22 03:29N 51°22' E 002°34'4 4.5
2015-Jan-22 02:30N 51°21' E 002°27'6 5.2
2015-Jan-22 01:27N 51°19' E 002°20'5 5.6
2015-Jan-22 00:33N 51°16' E 002°13'7 6.9
2015-Jan-21 23:34N 51°12' E 002°04'6 7.7
2015-Jan-21 22:50N 51°10' E 001°56'0 7.0
2015-Jan-21 22:46N 51°09' E 001°55'1 6.8
2015-Jan-21 22:33N 51°09' E 001°53'7 7.3
2015-Jan-21 21:33N 51°04' E 001°44'7 6.7
2015-Jan-21 20:34N 50°59' E 001°37'5 4.7
2015-Jan-21 19:34N 50°56' E 001°32'4 4.2
2015-Jan-21 18:33N 50°52' E 001°28'50 7.9
2015-Jan-21 12:12N 50°23' E 000°24'  
2015-Jan-17 18:32N 39°14' W 009°50'1111.5
2015-Jan-17 17:33N 39°02' W 009°50'1111.3
2015-Jan-17 16:32N 38°51' W 009°50'1111.2
2015-Jan-17 15:33N 38°40' W 009°49'10 9.7
2015-Jan-17 14:34N 38°37' W 009°38'1111.1
2015-Jan-17 13:33N 38°37' W 009°23'9 9.4
2015-Jan-17 12:34N 38°41' W 009°13'2 1.7
2015-Jan-17 11:33N 38°42' W 009°10'0 0.0
2015-Jan-17 10:24N 38°42' W 009°10'0 0.0
2015-Jan-17 09:33N 38°42' W 009°10'0 0.0
2015-Jan-17 08:33N 38°42' W 009°10'0 0.0
2015-Jan-17 07:33N 38°42' W 009°10'0 0.0
2015-Jan-17 06:33N 38°42' W 009°10'  

Dump ship's entire track history